createdAt,value
2018-06-10T00:00:22.804Z,99.90
2018-06-10T00:02:51.065Z,99.90
2018-06-10T00:05:19.354Z,99.90
2018-06-10T00:07:47.818Z,99.90
2018-06-10T00:10:16.099Z,99.90
2018-06-10T00:12:44.369Z,99.90
2018-06-10T00:15:12.634Z,99.90
2018-06-10T00:17:40.912Z,99.90
2018-06-10T00:20:09.213Z,99.90
2018-06-10T00:22:37.494Z,99.90
2018-06-10T00:25:06.863Z,99.90
2018-06-10T00:27:35.166Z,99.90
2018-06-10T00:30:03.464Z,99.90
2018-06-10T00:32:31.746Z,99.90
2018-06-10T00:35:00.022Z,99.90
2018-06-10T00:37:28.309Z,99.90
2018-06-10T00:39:56.582Z,99.90
2018-06-10T00:42:24.858Z,99.90
2018-06-10T00:44:53.126Z,99.90
2018-06-10T00:47:21.389Z,99.90
2018-06-10T00:49:49.684Z,99.90
2018-06-10T00:52:17.950Z,99.90
2018-06-10T00:54:46.270Z,99.90
2018-06-10T00:57:14.541Z,99.90
2018-06-10T00:59:42.823Z,99.90
2018-06-10T01:02:11.095Z,99.90
2018-06-10T01:04:39.378Z,99.90
2018-06-10T01:07:07.661Z,99.90
2018-06-10T01:09:35.943Z,99.90
2018-06-10T01:12:04.254Z,99.90
2018-06-10T01:14:32.541Z,99.90
2018-06-10T01:17:00.855Z,99.90
2018-06-10T01:19:29.127Z,99.90
2018-06-10T01:21:57.562Z,99.90
2018-06-10T01:24:25.870Z,99.90
2018-06-10T01:26:54.150Z,99.90
2018-06-10T01:29:22.578Z,99.90
2018-06-10T01:31:50.878Z,99.90
2018-06-10T01:34:19.164Z,99.90
2018-06-10T01:36:47.442Z,99.90
2018-06-10T01:39:15.714Z,99.90
2018-06-10T01:41:43.991Z,99.90
2018-06-10T01:44:12.298Z,99.90
2018-06-10T01:46:40.563Z,99.90
2018-06-10T01:49:08.830Z,99.90
2018-06-10T01:51:37.124Z,99.90
2018-06-10T01:54:05.459Z,99.90
2018-06-10T01:56:33.723Z,99.90
2018-06-10T01:59:01.991Z,99.90
2018-06-10T02:01:30.266Z,99.90
2018-06-10T02:06:27.418Z,99.90
2018-06-10T02:08:55.701Z,99.90
2018-06-10T02:13:52.011Z,99.90
2018-06-10T02:16:20.320Z,99.90
2018-06-10T02:18:48.642Z,99.90
2018-06-10T02:21:16.923Z,99.90
2018-06-10T02:23:45.217Z,99.90
2018-06-10T02:26:13.498Z,99.90
2018-06-10T02:28:41.947Z,99.90
2018-06-10T02:31:10.231Z,99.90
2018-06-10T02:33:38.716Z,99.90
2018-06-10T02:36:07.011Z,99.90
2018-06-10T02:38:35.318Z,99.90
2018-06-10T02:41:03.590Z,99.90
2018-06-10T02:43:31.863Z,99.90
2018-06-10T02:46:00.151Z,99.90
2018-06-10T02:48:28.429Z,99.90
2018-06-10T02:50:56.698Z,99.90
2018-06-10T02:53:24.989Z,99.90
2018-06-10T02:55:53.256Z,99.90
2018-06-10T02:58:21.534Z,99.90
2018-06-10T03:00:49.815Z,99.90
2018-06-10T03:03:18.104Z,99.90
2018-06-10T03:05:46.394Z,99.90
2018-06-10T03:08:14.670Z,99.90
2018-06-10T03:10:42.950Z,99.90
2018-06-10T03:13:11.227Z,99.90
2018-06-10T03:15:39.501Z,99.90
2018-06-10T03:18:07.810Z,99.90
2018-06-10T03:20:36.086Z,99.90
2018-06-10T03:23:04.461Z,99.90
2018-06-10T03:25:32.742Z,99.90
2018-06-10T03:28:01.020Z,99.90
2018-06-10T03:30:29.296Z,99.90
2018-06-10T03:32:57.578Z,99.90
2018-06-10T03:35:25.861Z,99.90
2018-06-10T03:37:54.234Z,99.90
2018-06-10T03:40:22.521Z,99.90
2018-06-10T03:42:50.798Z,99.90
2018-06-10T03:45:19.269Z,99.90
2018-06-10T03:47:47.754Z,99.90
2018-06-10T03:50:16.043Z,99.90
2018-06-10T03:52:44.414Z,99.90
2018-06-10T03:55:12.803Z,99.90
2018-06-10T03:57:41.346Z,99.90
2018-06-10T04:00:09.749Z,99.90
2018-06-10T04:02:38.108Z,99.90
2018-06-10T04:07:34.393Z,99.90
2018-06-10T04:10:02.686Z,99.90
2018-06-10T04:12:31.181Z,99.90
2018-06-10T04:14:59.478Z,99.90
2018-06-10T04:17:27.766Z,99.90
2018-06-10T04:19:56.474Z,99.90
2018-06-10T04:22:24.830Z,99.90
2018-06-10T04:24:53.249Z,99.90
2018-06-10T04:27:21.650Z,99.90
2018-06-10T04:29:50.003Z,99.90
2018-06-10T04:32:18.309Z,99.90
2018-06-10T04:34:46.659Z,99.90
2018-06-10T04:37:14.942Z,99.90
2018-06-10T04:39:43.233Z,99.90
2018-06-10T04:42:11.555Z,99.90
2018-06-10T04:47:08.052Z,99.90
2018-06-10T04:49:36.513Z,99.90
2018-06-10T04:52:04.841Z,99.90
2018-06-10T04:54:33.208Z,99.90
2018-06-10T04:57:01.501Z,99.90
2018-06-10T04:59:29.794Z,99.90
2018-06-10T05:01:58.103Z,99.90
2018-06-10T05:04:26.442Z,99.90
2018-06-10T05:06:54.832Z,99.90
2018-06-10T05:09:23.128Z,99.90
2018-06-10T05:14:19.643Z,99.90
2018-06-10T05:16:47.930Z,99.90
2018-06-10T05:19:16.218Z,99.90
2018-06-10T05:21:44.514Z,99.90
2018-06-10T05:24:12.777Z,99.90
2018-06-10T05:26:41.063Z,99.90
2018-06-10T05:29:09.334Z,99.90
2018-06-10T05:31:37.643Z,99.90
2018-06-10T05:34:06.329Z,99.90
2018-06-10T05:36:34.603Z,99.90
2018-06-10T05:39:02.885Z,99.90
2018-06-10T05:41:31.165Z,99.90
2018-06-10T05:43:59.435Z,99.90
2018-06-10T05:46:27.702Z,99.90
2018-06-10T05:48:55.970Z,99.90
2018-06-10T05:51:24.281Z,99.90
2018-06-10T05:53:52.522Z,99.90
2018-06-10T05:56:20.790Z,99.90
2018-06-10T06:01:17.118Z,99.90
2018-06-10T06:03:45.390Z,99.90
2018-06-10T06:06:13.712Z,99.90
2018-06-10T06:08:41.943Z,99.90
2018-06-10T06:11:10.230Z,99.90
2018-06-10T06:13:38.498Z,99.90
2018-06-10T06:16:06.781Z,99.90
2018-06-10T06:18:35.051Z,99.90
2018-06-10T06:21:03.345Z,99.90
2018-06-10T06:23:31.605Z,99.90
2018-06-10T06:25:59.890Z,99.90
2018-06-10T06:28:28.168Z,99.90
2018-06-10T06:30:56.436Z,99.90
2018-06-10T06:33:24.726Z,99.90
2018-06-10T06:35:53.006Z,99.90
2018-06-10T06:38:21.262Z,99.90
2018-06-10T06:40:49.537Z,99.90
2018-06-10T06:43:17.827Z,99.90
2018-06-10T06:45:46.104Z,99.90
2018-06-10T06:48:14.373Z,99.90
2018-06-10T06:50:42.672Z,99.90
2018-06-10T06:53:10.941Z,99.90
2018-06-10T06:55:39.223Z,99.90
2018-06-10T06:58:07.505Z,99.90
2018-06-10T07:00:35.770Z,99.90
2018-06-10T07:03:04.045Z,99.90
2018-06-10T07:05:32.327Z,99.90
2018-06-10T07:08:00.606Z,99.90
2018-06-10T07:10:28.869Z,99.90
2018-06-10T07:12:57.163Z,99.90
2018-06-10T07:15:25.421Z,99.90
2018-06-10T07:17:53.881Z,99.90
2018-06-10T07:20:22.159Z,99.90
2018-06-10T07:22:50.604Z,99.90
2018-06-10T07:25:18.894Z,99.90
2018-06-10T07:27:47.294Z,99.90
2018-06-10T07:30:15.553Z,99.90
2018-06-10T07:32:43.846Z,99.90
2018-06-10T07:35:12.110Z,99.90
2018-06-10T07:37:40.378Z,99.90
2018-06-10T07:42:36.644Z,99.90
2018-06-10T07:45:04.921Z,99.90
2018-06-10T07:47:33.390Z,99.90
2018-06-10T07:50:01.665Z,99.90
2018-06-10T07:54:57.947Z,99.90
2018-06-10T07:57:26.219Z,99.90
2018-06-10T07:59:54.485Z,99.90
2018-06-10T08:02:22.795Z,99.90
2018-06-10T08:04:51.090Z,99.90
2018-06-10T08:07:19.345Z,99.90
2018-06-10T08:09:47.642Z,99.90
2018-06-10T08:12:15.931Z,99.90
2018-06-10T08:14:44.199Z,99.90
2018-06-10T08:17:12.475Z,99.90
2018-06-10T08:19:40.750Z,99.90
2018-06-10T08:22:09.026Z,99.90
2018-06-10T08:24:37.683Z,99.90
2018-06-10T08:27:06.251Z,99.90
2018-06-10T08:29:34.617Z,99.90
2018-06-10T08:32:03.118Z,99.90
2018-06-10T08:34:31.369Z,99.90
2018-06-10T08:36:59.677Z,99.90
2018-06-10T08:39:27.950Z,99.90
2018-06-10T08:41:56.226Z,99.90
2018-06-10T08:44:24.514Z,99.90
2018-06-10T08:46:52.786Z,99.90
2018-06-10T08:49:21.062Z,99.90
2018-06-10T08:51:49.541Z,99.90
2018-06-10T08:54:17.821Z,99.90
2018-06-10T08:56:46.083Z,99.90
2018-06-10T08:59:14.778Z,99.90
2018-06-10T09:01:43.035Z,99.90
2018-06-10T09:04:11.312Z,99.90
2018-06-10T09:06:39.577Z,99.90
2018-06-10T09:11:37.729Z,99.90
2018-06-10T09:14:06.009Z,99.90
2018-06-10T09:16:34.288Z,99.90
2018-06-10T09:19:02.541Z,99.90
2018-06-10T09:21:30.807Z,99.90
2018-06-10T09:23:59.089Z,99.90
2018-06-10T09:26:27.375Z,99.90
2018-06-10T09:28:55.655Z,99.90
2018-06-10T09:31:24.029Z,99.90
2018-06-10T09:33:52.301Z,99.90
2018-06-10T09:36:20.780Z,99.90
2018-06-10T09:38:49.042Z,99.90
2018-06-10T09:41:17.346Z,99.90
2018-06-10T09:43:45.644Z,99.90
2018-06-10T09:46:13.922Z,99.90
2018-06-10T09:48:42.199Z,99.90
2018-06-10T09:51:10.494Z,99.90
2018-06-10T09:53:38.847Z,99.90
2018-06-10T09:56:07.129Z,99.90
2018-06-10T09:58:35.419Z,99.90
2018-06-10T10:01:03.854Z,99.90
2018-06-10T10:03:32.138Z,99.90
2018-06-10T10:06:00.415Z,99.90
2018-06-10T10:08:28.702Z,99.90
2018-06-10T10:10:56.972Z,99.90
2018-06-10T10:13:25.240Z,99.90
2018-06-10T10:15:53.722Z,99.90
2018-06-10T10:18:22.010Z,99.90
2018-06-10T10:20:50.541Z,95.80
2018-06-10T10:23:18.813Z,93.20
2018-06-10T10:25:47.090Z,90.10
2018-06-10T10:28:15.375Z,87.20
2018-06-10T10:30:43.656Z,87.70
2018-06-10T10:33:11.909Z,90.80
2018-06-10T10:35:40.217Z,91.10
2018-06-10T10:38:09.493Z,91.60
2018-06-10T10:40:37.773Z,94.70
2018-06-10T10:43:06.057Z,97.90
2018-06-10T10:45:34.323Z,99.20
2018-06-10T10:48:02.618Z,99.90
2018-06-10T10:50:30.881Z,99.90
2018-06-10T10:52:59.152Z,99.90
2018-06-10T10:55:27.446Z,99.90
2018-06-10T10:57:55.706Z,99.90
2018-06-10T11:00:24.014Z,99.90
2018-06-10T11:02:52.301Z,99.90
2018-06-10T11:05:20.577Z,99.90
2018-06-10T11:10:16.971Z,99.00
2018-06-10T11:12:45.238Z,99.60
2018-06-10T11:15:13.498Z,99.70
2018-06-10T11:17:41.766Z,97.80
2018-06-10T11:20:10.065Z,93.80
2018-06-10T11:22:38.328Z,89.90
2018-06-10T11:25:06.621Z,91.00
2018-06-10T11:27:34.924Z,87.10
2018-06-10T11:30:03.182Z,83.60
2018-06-10T11:32:31.459Z,78.80
2018-06-10T11:34:59.774Z,70.20
2018-06-10T11:37:28.043Z,66.40
2018-06-10T11:39:56.310Z,63.90
2018-06-10T11:42:24.610Z,62.60
2018-06-10T11:44:52.877Z,66.30
2018-06-10T11:47:21.986Z,67.90
2018-06-10T11:49:50.261Z,70.60
2018-06-10T11:52:18.536Z,68.80
2018-06-10T11:54:46.813Z,68.90
2018-06-10T11:57:15.098Z,70.90
2018-06-10T11:59:43.382Z,70.00
2018-06-10T12:02:11.676Z,72.60
2018-06-10T12:04:39.981Z,73.80
2018-06-10T12:07:08.333Z,73.50
2018-06-10T12:09:36.610Z,67.70
2018-06-10T12:12:04.947Z,65.20
2018-06-10T12:14:33.226Z,67.20
2018-06-10T12:17:01.499Z,66.40
2018-06-10T12:19:29.777Z,65.80
2018-06-10T12:21:58.073Z,64.30
2018-06-10T12:24:26.369Z,60.60
2018-06-10T12:29:22.676Z,56.00
2018-06-10T12:31:50.938Z,59.40
2018-06-10T12:34:19.220Z,60.20
2018-06-10T12:36:47.482Z,62.60
2018-06-10T12:39:16.005Z,59.60
2018-06-10T12:41:44.239Z,58.80
2018-06-10T12:44:12.522Z,57.20
2018-06-10T12:46:41.100Z,57.00
2018-06-10T12:49:09.582Z,55.30
2018-06-10T12:51:37.851Z,55.20
2018-06-10T12:54:06.113Z,54.30
2018-06-10T12:56:34.378Z,54.60
2018-06-10T13:01:30.674Z,54.70
2018-06-10T13:03:58.945Z,55.30
2018-06-10T13:06:27.230Z,56.60
2018-06-10T13:08:55.522Z,58.90
2018-06-10T13:11:23.822Z,60.80
2018-06-10T13:13:52.085Z,62.00
2018-06-10T13:16:20.374Z,62.60
2018-06-10T13:18:48.664Z,61.00
2018-06-10T13:21:16.941Z,61.80
2018-06-10T13:23:45.228Z,64.80
2018-06-10T13:26:13.542Z,64.60
2018-06-10T13:28:41.806Z,66.60
2018-06-10T13:31:10.066Z,66.20
2018-06-10T13:33:38.340Z,63.20
2018-06-10T13:36:06.623Z,60.60
2018-06-10T13:41:02.962Z,57.20
2018-06-10T13:45:59.384Z,54.60
2018-06-10T13:48:27.620Z,53.80
2018-06-10T13:50:55.881Z,54.00
2018-06-10T13:53:24.162Z,54.00
2018-06-10T13:55:52.441Z,54.20
2018-06-10T13:58:20.717Z,53.30
2018-06-10T14:00:48.985Z,54.50
2018-06-10T14:03:17.251Z,55.40
2018-06-10T14:05:45.528Z,57.80
2018-06-10T14:08:13.801Z,55.80
2018-06-10T14:10:42.077Z,56.80
2018-06-10T14:13:10.342Z,56.30
2018-06-10T14:15:38.618Z,54.30
2018-06-10T14:18:06.885Z,52.20
2018-06-10T14:20:35.158Z,51.40
2018-06-10T14:23:03.456Z,51.10
2018-06-10T14:25:31.730Z,51.20
2018-06-10T14:28:00.014Z,52.00
2018-06-10T14:30:28.288Z,52.10
2018-06-10T14:32:56.559Z,53.90
2018-06-10T14:35:24.834Z,54.90
2018-06-10T14:37:54.527Z,58.40
2018-06-10T14:40:22.773Z,57.80
2018-06-10T14:42:51.055Z,60.80
2018-06-10T14:45:19.318Z,60.50
2018-06-10T14:47:47.843Z,59.70
2018-06-10T14:50:16.122Z,60.20
2018-06-10T14:52:44.390Z,62.20
2018-06-10T14:55:12.674Z,60.40
2018-06-10T14:57:40.946Z,64.00
2018-06-10T15:00:09.205Z,63.70
2018-06-10T15:02:37.482Z,65.70
2018-06-10T15:05:05.842Z,66.00
2018-06-10T15:07:34.111Z,64.80
2018-06-10T15:12:30.398Z,66.20
2018-06-10T15:14:58.814Z,67.30
2018-06-10T15:17:27.074Z,65.40
2018-06-10T15:19:55.374Z,64.40
2018-06-10T15:22:23.674Z,64.10
2018-06-10T15:24:51.938Z,64.40
2018-06-10T15:27:20.242Z,66.20
2018-06-10T15:29:48.518Z,68.80
2018-06-10T15:32:16.973Z,67.80
2018-06-10T15:34:45.235Z,69.70
2018-06-10T15:37:13.574Z,70.60
2018-06-10T15:39:42.151Z,71.20
2018-06-10T15:42:10.409Z,71.10
2018-06-10T15:44:38.682Z,71.20
2018-06-10T15:47:06.945Z,70.80
2018-06-10T15:49:35.222Z,71.80
2018-06-10T15:52:03.474Z,71.50
2018-06-10T15:54:31.754Z,71.10
2018-06-10T15:57:00.038Z,71.70
2018-06-10T15:59:28.314Z,71.40
2018-06-10T16:01:56.754Z,72.20
2018-06-10T16:04:25.042Z,72.50
2018-06-10T16:06:53.309Z,73.40
2018-06-10T16:09:21.583Z,73.00
2018-06-10T16:11:49.854Z,72.70
2018-06-10T16:14:18.143Z,73.70
2018-06-10T16:16:46.465Z,73.00
2018-06-10T16:19:14.670Z,73.60
2018-06-10T16:21:42.938Z,74.20
2018-06-10T16:24:11.205Z,75.10
2018-06-10T16:26:39.481Z,76.50
2018-06-10T16:29:07.766Z,77.30
2018-06-10T16:31:36.067Z,76.50
2018-06-10T16:34:04.334Z,77.50
2018-06-10T16:36:32.735Z,78.00
2018-06-10T16:39:01.217Z,76.90
2018-06-10T16:41:29.478Z,77.90
2018-06-10T16:43:57.754Z,78.90
2018-06-10T16:46:26.014Z,78.50
2018-06-10T16:48:54.308Z,78.40
2018-06-10T16:51:22.566Z,78.20
2018-06-10T16:53:50.838Z,77.00
2018-06-10T16:56:19.102Z,77.40
2018-06-10T16:58:47.384Z,79.00
2018-06-10T17:01:15.654Z,79.50
2018-06-10T17:03:43.922Z,79.60
2018-06-10T17:06:12.201Z,81.20
2018-06-10T17:08:40.540Z,82.50
2018-06-10T17:11:08.969Z,82.30
2018-06-10T17:13:37.242Z,81.80
2018-06-10T17:16:05.551Z,84.30
2018-06-10T17:18:33.787Z,83.40
2018-06-10T17:21:02.062Z,84.20
2018-06-10T17:23:30.338Z,86.40
2018-06-10T17:25:58.606Z,85.90
2018-06-10T17:28:26.951Z,84.90
2018-06-10T17:30:55.185Z,84.20
2018-06-10T17:33:23.446Z,85.50
2018-06-10T17:35:51.707Z,85.80
2018-06-10T17:38:19.994Z,87.80
2018-06-10T17:40:48.249Z,87.90
2018-06-10T17:43:16.697Z,90.60
2018-06-10T17:45:44.953Z,90.40
2018-06-10T17:48:13.222Z,91.70
2018-06-10T17:50:41.493Z,92.80
2018-06-10T17:53:09.754Z,92.90
2018-06-10T17:55:38.051Z,93.60
2018-06-10T17:58:06.322Z,94.50
2018-06-10T18:00:34.622Z,95.50
2018-06-10T18:03:02.879Z,96.00
2018-06-10T18:05:31.162Z,96.10
2018-06-10T18:07:59.430Z,96.50
2018-06-10T18:10:27.712Z,97.60
2018-06-10T18:12:55.986Z,98.80
2018-06-10T18:15:24.270Z,99.00
2018-06-10T18:17:53.418Z,99.70
2018-06-10T18:20:21.686Z,99.90
2018-06-10T18:22:49.962Z,99.90
2018-06-10T18:25:18.230Z,99.90
2018-06-10T18:27:46.519Z,99.90
2018-06-10T18:30:14.799Z,99.90
2018-06-10T18:35:11.074Z,99.90
2018-06-10T18:37:39.353Z,99.90
2018-06-10T18:40:07.647Z,99.90
2018-06-10T18:42:35.914Z,99.90
2018-06-10T18:45:04.238Z,99.90
2018-06-10T18:47:32.571Z,99.90
2018-06-10T18:50:00.861Z,99.90
2018-06-10T18:52:29.151Z,99.90
2018-06-10T18:54:57.433Z,99.90
2018-06-10T18:57:25.706Z,99.90
2018-06-10T18:59:53.974Z,99.90
2018-06-10T19:02:22.270Z,99.90
2018-06-10T19:04:50.552Z,99.90
2018-06-10T19:07:18.862Z,99.90
2018-06-10T19:09:47.150Z,99.90
2018-06-10T19:12:15.434Z,99.90
2018-06-10T19:14:43.717Z,99.90
2018-06-10T19:17:11.999Z,99.90
2018-06-10T19:19:40.286Z,99.90
2018-06-10T19:22:08.566Z,99.90
2018-06-10T19:24:36.851Z,99.90
2018-06-10T19:27:05.157Z,99.90
2018-06-10T19:29:33.450Z,99.90
2018-06-10T19:34:29.730Z,99.90
2018-06-10T19:36:58.032Z,99.90
2018-06-10T19:39:26.311Z,99.90
2018-06-10T19:41:54.578Z,99.90
2018-06-10T19:44:22.854Z,99.90
2018-06-10T19:46:51.138Z,99.90
2018-06-10T19:49:19.423Z,99.90
2018-06-10T19:51:47.725Z,99.90
2018-06-10T19:54:16.102Z,99.90
2018-06-10T19:56:44.389Z,99.90
2018-06-10T19:59:12.660Z,99.90
2018-06-10T20:01:40.931Z,99.90
2018-06-10T20:04:09.188Z,99.90
2018-06-10T20:06:37.465Z,99.90
2018-06-10T20:09:07.458Z,99.90
2018-06-10T20:11:35.733Z,99.90
2018-06-10T20:14:04.032Z,99.90
2018-06-10T20:16:32.302Z,99.90
2018-06-10T20:19:00.591Z,99.90
2018-06-10T20:21:28.866Z,99.90
2018-06-10T20:23:57.142Z,99.90
2018-06-10T20:26:25.454Z,99.90
2018-06-10T20:28:53.726Z,99.90
2018-06-10T20:31:21.995Z,99.90
2018-06-10T20:33:50.271Z,99.90
2018-06-10T20:36:18.558Z,99.90
2018-06-10T20:38:46.854Z,99.90
2018-06-10T20:41:15.144Z,99.90
2018-06-10T20:43:43.470Z,99.90
2018-06-10T20:46:11.745Z,99.90
2018-06-10T20:48:40.047Z,99.90
2018-06-10T20:51:08.317Z,99.90
2018-06-10T20:53:36.594Z,99.90
2018-06-10T20:56:04.865Z,99.90
2018-06-10T20:58:33.138Z,99.90
2018-06-10T21:01:01.427Z,99.90
2018-06-10T21:03:29.769Z,99.90
2018-06-10T21:05:58.054Z,99.90
2018-06-10T21:08:26.322Z,99.90
2018-06-10T21:10:54.593Z,99.90
2018-06-10T21:13:22.868Z,99.90
2018-06-10T21:15:51.170Z,99.90
2018-06-10T21:18:19.450Z,99.90
2018-06-10T21:20:47.762Z,99.90
2018-06-10T21:23:16.027Z,99.90
2018-06-10T21:25:44.293Z,99.90
2018-06-10T21:28:12.641Z,99.90
2018-06-10T21:30:40.923Z,99.90
2018-06-10T21:33:09.201Z,99.90
2018-06-10T21:35:37.490Z,99.90
2018-06-10T21:38:05.794Z,99.90
2018-06-10T21:40:34.077Z,99.90
2018-06-10T21:43:02.362Z,99.90
2018-06-10T21:45:30.649Z,99.90
2018-06-10T21:50:26.981Z,99.90
2018-06-10T21:52:55.262Z,99.90
2018-06-10T21:55:23.538Z,99.90
2018-06-10T21:57:52.473Z,99.90
2018-06-10T22:00:24.647Z,99.90
2018-06-10T22:02:53.238Z,99.90
2018-06-10T22:05:21.587Z,99.90
2018-06-10T22:07:49.879Z,99.90
2018-06-10T22:10:18.463Z,99.90
2018-06-10T22:12:46.734Z,99.90
2018-06-10T22:15:15.071Z,99.90
2018-06-10T22:17:43.601Z,99.90
2018-06-10T22:20:12.077Z,99.90
2018-06-10T22:22:40.395Z,99.90
2018-06-10T22:25:08.678Z,99.90
2018-06-10T22:27:36.953Z,99.90
2018-06-10T22:30:05.283Z,99.90
2018-06-10T22:32:33.561Z,99.90
2018-06-10T22:35:01.827Z,99.90
2018-06-10T22:37:30.103Z,99.90
2018-06-10T22:39:58.379Z,99.90
2018-06-10T22:42:26.653Z,99.90
2018-06-10T22:44:54.947Z,99.90
2018-06-10T22:47:23.211Z,99.90
2018-06-10T22:52:19.613Z,99.90
2018-06-10T22:54:48.075Z,99.90
2018-06-10T22:57:16.358Z,99.90
2018-06-10T22:59:44.629Z,99.90
2018-06-10T23:02:12.914Z,99.90
2018-06-10T23:04:41.191Z,99.90
2018-06-10T23:07:09.538Z,99.90
2018-06-10T23:09:37.789Z,99.90
2018-06-10T23:12:06.083Z,99.90
2018-06-10T23:14:34.403Z,99.90
2018-06-10T23:17:02.711Z,99.90
2018-06-10T23:19:31.003Z,99.90
2018-06-10T23:21:59.283Z,99.90
2018-06-10T23:24:27.571Z,99.90
2018-06-10T23:26:55.896Z,99.90
2018-06-10T23:29:24.189Z,99.90
2018-06-10T23:31:52.462Z,99.90
2018-06-10T23:34:20.823Z,99.90
2018-06-10T23:36:49.104Z,99.90
2018-06-10T23:39:17.406Z,99.90
2018-06-10T23:41:45.690Z,99.90
2018-06-10T23:44:13.975Z,99.90
2018-06-10T23:46:42.250Z,99.90
2018-06-10T23:49:10.772Z,99.90
2018-06-10T23:51:39.111Z,99.90
2018-06-10T23:54:07.374Z,99.90
2018-06-10T23:56:35.654Z,99.90
2018-06-10T23:59:03.954Z,99.90
